sensor_id;sensor_type;location;lat;lon;timestamp;P1;durP1;ratioP1;P2;durP2;ratioP2
33954;SDS011;20233;50.804;7.126;2022-09-27T00:00:29;12.88;;;3.80;;
33954;SDS011;20233;50.804;7.126;2022-09-27T00:02:55;12.98;;;3.60;;
33954;SDS011;20233;50.804;7.126;2022-09-27T00:05:20;9.20;;;3.55;;
33954;SDS011;20233;50.804;7.126;2022-09-27T00:07:46;8.25;;;2.83;;
33954;SDS011;20233;50.804;7.126;2022-09-27T00:10:12;6.15;;;3.05;;
33954;SDS011;20233;50.804;7.126;2022-09-27T00:12:38;6.40;;;2.40;;
33954;SDS011;20233;50.804;7.126;2022-09-27T00:15:05;6.25;;;2.75;;
33954;SDS011;20233;50.804;7.126;2022-09-27T00:17:31;7.95;;;2.45;;
33954;SDS011;20233;50.804;7.126;2022-09-27T00:19:58;5.00;;;1.67;;
33954;SDS011;20233;50.804;7.126;2022-09-27T00:22:24;5.07;;;1.60;;
33954;SDS011;20233;50.804;7.126;2022-09-27T00:24:50;5.30;;;1.10;;
33954;SDS011;20233;50.804;7.126;2022-09-27T00:27:17;3.88;;;0.70;;
33954;SDS011;20233;50.804;7.126;2022-09-27T00:29:43;4.30;;;0.73;;
33954;SDS011;20233;50.804;7.126;2022-09-27T00:32:10;5.28;;;1.23;;
33954;SDS011;20233;50.804;7.126;2022-09-27T00:34:36;2.40;;;0.70;;
33954;SDS011;20233;50.804;7.126;2022-09-27T00:37:01;4.50;;;1.00;;
33954;SDS011;20233;50.804;7.126;2022-09-27T00:39:27;3.70;;;1.40;;
33954;SDS011;20233;50.804;7.126;2022-09-27T00:41:54;4.13;;;1.00;;
33954;SDS011;20233;50.804;7.126;2022-09-27T00:49:26;3.75;;;0.73;;
33954;SDS011;20233;50.804;7.126;2022-09-27T00:51:59;3.67;;;0.80;;
33954;SDS011;20233;50.804;7.126;2022-09-27T00:54:28;6.65;;;1.38;;
33954;SDS011;20233;50.804;7.126;2022-09-27T00:56:57;3.50;;;0.68;;
33954;SDS011;20233;50.804;7.126;2022-09-27T00:59:26;3.53;;;1.33;;
33954;SDS011;20233;50.804;7.126;2022-09-27T01:01:58;5.68;;;1.50;;
33954;SDS011;20233;50.804;7.126;2022-09-27T01:04:25;6.80;;;2.22;;
33954;SDS011;20233;50.804;7.126;2022-09-27T01:06:53;7.93;;;2.00;;
33954;SDS011;20233;50.804;7.126;2022-09-27T01:09:18;5.85;;;1.83;;
33954;SDS011;20233;50.804;7.126;2022-09-27T01:23:13;5.13;;;2.00;;
33954;SDS011;20233;50.804;7.126;2022-09-27T01:28:57;4.95;;;1.50;;
33954;SDS011;20233;50.804;7.126;2022-09-27T01:31:51;5.10;;;1.20;;
33954;SDS011;20233;50.804;7.126;2022-09-27T01:35:12;5.32;;;1.10;;
33954;SDS011;20233;50.804;7.126;2022-09-27T01:37:38;5.25;;;1.95;;
33954;SDS011;20233;50.804;7.126;2022-09-27T01:40:27;4.38;;;0.50;;
33954;SDS011;20233;50.804;7.126;2022-09-27T01:43:17;5.68;;;0.50;;
33954;SDS011;20233;50.804;7.126;2022-09-27T01:45:53;5.82;;;0.60;;
33954;SDS011;20233;50.804;7.126;2022-09-27T01:48:23;5.22;;;0.52;;
33954;SDS011;20233;50.804;7.126;2022-09-27T01:53:30;5.05;;;0.80;;
33954;SDS011;20233;50.804;7.126;2022-09-27T01:56:12;2.45;;;0.20;;
33954;SDS011;20233;50.804;7.126;2022-09-27T01:58:45;3.20;;;0.40;;
33954;SDS011;20233;50.804;7.126;2022-09-27T02:01:16;4.88;;;0.30;;
33954;SDS011;20233;50.804;7.126;2022-09-27T02:03:48;3.30;;;0.28;;
33954;SDS011;20233;50.804;7.126;2022-09-27T02:09:01;1.25;;;0.50;;
33954;SDS011;20233;50.804;7.126;2022-09-27T02:11:31;3.40;;;0.60;;
33954;SDS011;20233;50.804;7.126;2022-09-27T02:14:14;2.10;;;0.40;;
33954;SDS011;20233;50.804;7.126;2022-09-27T02:17:17;4.13;;;0.68;;
33954;SDS011;20233;50.804;7.126;2022-09-27T02:22:43;5.20;;;0.88;;
33954;SDS011;20233;50.804;7.126;2022-09-27T02:25:23;3.70;;;0.73;;
33954;SDS011;20233;50.804;7.126;2022-09-27T02:28:21;7.65;;;1.02;;
33954;SDS011;20233;50.804;7.126;2022-09-27T02:30:43;4.68;;;1.00;;
33954;SDS011;20233;50.804;7.126;2022-09-27T02:33:09;5.40;;;1.20;;
33954;SDS011;20233;50.804;7.126;2022-09-27T02:35:35;4.72;;;1.05;;
33954;SDS011;20233;50.804;7.126;2022-09-27T02:38:01;3.10;;;1.10;;
33954;SDS011;20233;50.804;7.126;2022-09-27T02:40:31;5.60;;;0.95;;
33954;SDS011;20233;50.804;7.126;2022-09-27T02:42:58;4.45;;;1.02;;
33954;SDS011;20233;50.804;7.126;2022-09-27T02:45:27;7.15;;;1.08;;
33954;SDS011;20233;50.804;7.126;2022-09-27T02:48:07;4.85;;;0.95;;
33954;SDS011;20233;50.804;7.126;2022-09-27T02:50:44;2.72;;;0.80;;
33954;SDS011;20233;50.804;7.126;2022-09-27T02:55:58;2.97;;;0.60;;
33954;SDS011;20233;50.804;7.126;2022-09-27T02:59:06;2.95;;;0.90;;
33954;SDS011;20233;50.804;7.126;2022-09-27T03:01:44;4.32;;;0.80;;
33954;SDS011;20233;50.804;7.126;2022-09-27T03:04:39;6.47;;;0.83;;
33954;SDS011;20233;50.804;7.126;2022-09-27T03:07:17;5.95;;;0.90;;
33954;SDS011;20233;50.804;7.126;2022-09-27T03:09:45;4.13;;;0.47;;
33954;SDS011;20233;50.804;7.126;2022-09-27T03:12:13;2.10;;;0.50;;
33954;SDS011;20233;50.804;7.126;2022-09-27T03:14:44;5.18;;;0.47;;
33954;SDS011;20233;50.804;7.126;2022-09-27T03:17:10;4.45;;;0.95;;
33954;SDS011;20233;50.804;7.126;2022-09-27T03:19:36;2.30;;;0.60;;
33954;SDS011;20233;50.804;7.126;2022-09-27T03:22:02;2.88;;;0.60;;
33954;SDS011;20233;50.804;7.126;2022-09-27T03:24:27;4.30;;;1.05;;
33954;SDS011;20233;50.804;7.126;2022-09-27T03:26:53;4.07;;;0.88;;
33954;SDS011;20233;50.804;7.126;2022-09-27T03:29:19;3.63;;;1.30;;
33954;SDS011;20233;50.804;7.126;2022-09-27T03:31:44;6.43;;;2.20;;
33954;SDS011;20233;50.804;7.126;2022-09-27T03:34:10;4.35;;;2.17;;
33954;SDS011;20233;50.804;7.126;2022-09-27T03:36:35;6.60;;;2.95;;
33954;SDS011;20233;50.804;7.126;2022-09-27T03:39:01;5.32;;;1.92;;
33954;SDS011;20233;50.804;7.126;2022-09-27T03:41:26;8.73;;;2.60;;
33954;SDS011;20233;50.804;7.126;2022-09-27T03:43:52;6.20;;;2.20;;
33954;SDS011;20233;50.804;7.126;2022-09-27T03:46:20;7.25;;;2.35;;
33954;SDS011;20233;50.804;7.126;2022-09-27T03:48:46;6.10;;;2.15;;
33954;SDS011;20233;50.804;7.126;2022-09-27T03:51:11;5.22;;;2.13;;
33954;SDS011;20233;50.804;7.126;2022-09-27T03:53:37;5.75;;;1.75;;
33954;SDS011;20233;50.804;7.126;2022-09-27T03:56:02;4.22;;;1.92;;
33954;SDS011;20233;50.804;7.126;2022-09-27T03:58:28;2.90;;;1.02;;
33954;SDS011;20233;50.804;7.126;2022-09-27T04:00:54;4.32;;;0.93;;
33954;SDS011;20233;50.804;7.126;2022-09-27T04:03:19;3.72;;;0.98;;
33954;SDS011;20233;50.804;7.126;2022-09-27T04:05:45;2.90;;;0.98;;
33954;SDS011;20233;50.804;7.126;2022-09-27T04:08:11;2.17;;;0.40;;
33954;SDS011;20233;50.804;7.126;2022-09-27T04:10:37;5.63;;;0.57;;
33954;SDS011;20233;50.804;7.126;2022-09-27T04:13:03;2.55;;;0.30;;
33954;SDS011;20233;50.804;7.126;2022-09-27T04:15:29;3.75;;;0.50;;
33954;SDS011;20233;50.804;7.126;2022-09-27T04:17:55;3.58;;;0.30;;
33954;SDS011;20233;50.804;7.126;2022-09-27T04:20:20;2.78;;;0.40;;
33954;SDS011;20233;50.804;7.126;2022-09-27T04:22:46;5.63;;;0.90;;
33954;SDS011;20233;50.804;7.126;2022-09-27T04:25:12;5.10;;;0.50;;
33954;SDS011;20233;50.804;7.126;2022-09-27T04:27:37;4.32;;;0.30;;
33954;SDS011;20233;50.804;7.126;2022-09-27T04:30:08;2.95;;;0.30;;
33954;SDS011;20233;50.804;7.126;2022-09-27T04:32:34;2.80;;;0.35;;
33954;SDS011;20233;50.804;7.126;2022-09-27T04:35:05;2.65;;;0.38;;
33954;SDS011;20233;50.804;7.126;2022-09-27T04:37:50;4.03;;;0.45;;
33954;SDS011;20233;50.804;7.126;2022-09-27T04:40:15;1.98;;;0.40;;
33954;SDS011;20233;50.804;7.126;2022-09-27T04:42:41;2.35;;;0.55;;
33954;SDS011;20233;50.804;7.126;2022-09-27T04:45:07;1.88;;;0.30;;
33954;SDS011;20233;50.804;7.126;2022-09-27T04:47:32;2.92;;;0.40;;
33954;SDS011;20233;50.804;7.126;2022-09-27T04:49:59;3.22;;;0.40;;
33954;SDS011;20233;50.804;7.126;2022-09-27T04:52:24;3.13;;;0.35;;
33954;SDS011;20233;50.804;7.126;2022-09-27T04:54:50;4.35;;;0.40;;
33954;SDS011;20233;50.804;7.126;2022-09-27T04:57:15;2.78;;;0.50;;
33954;SDS011;20233;50.804;7.126;2022-09-27T04:59:41;3.42;;;0.60;;
33954;SDS011;20233;50.804;7.126;2022-09-27T05:02:07;2.55;;;0.52;;
33954;SDS011;20233;50.804;7.126;2022-09-27T05:04:32;2.80;;;0.32;;
33954;SDS011;20233;50.804;7.126;2022-09-27T05:06:58;4.80;;;0.50;;
33954;SDS011;20233;50.804;7.126;2022-09-27T05:09:23;2.70;;;0.30;;
33954;SDS011;20233;50.804;7.126;2022-09-27T05:11:49;3.03;;;0.50;;
33954;SDS011;20233;50.804;7.126;2022-09-27T05:14:15;2.97;;;0.30;;
33954;SDS011;20233;50.804;7.126;2022-09-27T05:16:40;2.10;;;0.55;;
33954;SDS011;20233;50.804;7.126;2022-09-27T05:19:06;3.58;;;0.50;;
33954;SDS011;20233;50.804;7.126;2022-09-27T05:21:31;3.95;;;0.43;;
33954;SDS011;20233;50.804;7.126;2022-09-27T05:23:57;1.80;;;0.40;;
33954;SDS011;20233;50.804;7.126;2022-09-27T05:26:23;1.80;;;0.40;;
33954;SDS011;20233;50.804;7.126;2022-09-27T05:28:49;5.43;;;0.60;;
33954;SDS011;20233;50.804;7.126;2022-09-27T05:31:14;4.80;;;0.60;;
33954;SDS011;20233;50.804;7.126;2022-09-27T05:33:40;4.53;;;0.85;;
33954;SDS011;20233;50.804;7.126;2022-09-27T05:36:06;5.65;;;0.70;;
33954;SDS011;20233;50.804;7.126;2022-09-27T05:38:33;3.15;;;0.40;;
33954;SDS011;20233;50.804;7.126;2022-09-27T05:40:59;4.50;;;0.88;;
33954;SDS011;20233;50.804;7.126;2022-09-27T05:43:25;2.45;;;0.57;;
33954;SDS011;20233;50.804;7.126;2022-09-27T05:45:52;4.13;;;0.70;;
33954;SDS011;20233;50.804;7.126;2022-09-27T05:48:17;4.30;;;0.70;;
33954;SDS011;20233;50.804;7.126;2022-09-27T05:50:43;4.45;;;0.70;;
33954;SDS011;20233;50.804;7.126;2022-09-27T05:53:09;3.78;;;0.60;;
33954;SDS011;20233;50.804;7.126;2022-09-27T05:55:35;3.30;;;0.50;;
33954;SDS011;20233;50.804;7.126;2022-09-27T05:58:02;4.57;;;0.90;;
33954;SDS011;20233;50.804;7.126;2022-09-27T06:00:29;3.67;;;0.60;;
33954;SDS011;20233;50.804;7.126;2022-09-27T06:02:59;3.80;;;0.60;;
33954;SDS011;20233;50.804;7.126;2022-09-27T06:05:27;6.00;;;0.57;;
33954;SDS011;20233;50.804;7.126;2022-09-27T06:07:59;4.57;;;0.73;;
33954;SDS011;20233;50.804;7.126;2022-09-27T06:12:52;4.63;;;0.73;;
33954;SDS011;20233;50.804;7.126;2022-09-27T06:15:18;3.78;;;0.63;;
33954;SDS011;20233;50.804;7.126;2022-09-27T06:17:43;4.13;;;0.75;;
33954;SDS011;20233;50.804;7.126;2022-09-27T06:20:09;3.22;;;0.50;;
33954;SDS011;20233;50.804;7.126;2022-09-27T06:22:35;1.92;;;0.60;;
33954;SDS011;20233;50.804;7.126;2022-09-27T06:25:01;3.15;;;0.70;;
33954;SDS011;20233;50.804;7.126;2022-09-27T06:27:28;3.03;;;0.68;;
33954;SDS011;20233;50.804;7.126;2022-09-27T06:29:56;2.75;;;0.40;;
33954;SDS011;20233;50.804;7.126;2022-09-27T06:32:22;3.03;;;0.52;;
33954;SDS011;20233;50.804;7.126;2022-09-27T06:34:47;1.67;;;0.82;;
33954;SDS011;20233;50.804;7.126;2022-09-27T06:37:13;5.28;;;0.47;;
33954;SDS011;20233;50.804;7.126;2022-09-27T06:39:39;2.50;;;0.30;;
33954;SDS011;20233;50.804;7.126;2022-09-27T06:42:05;3.90;;;0.50;;
33954;SDS011;20233;50.804;7.126;2022-09-27T06:44:31;2.47;;;0.60;;
33954;SDS011;20233;50.804;7.126;2022-09-27T06:46:57;2.83;;;0.50;;
33954;SDS011;20233;50.804;7.126;2022-09-27T06:49:22;4.57;;;0.70;;
33954;SDS011;20233;50.804;7.126;2022-09-27T06:51:49;3.38;;;0.70;;
33954;SDS011;20233;50.804;7.126;2022-09-27T06:54:16;4.57;;;0.50;;
33954;SDS011;20233;50.804;7.126;2022-09-27T06:56:42;8.45;;;0.70;;
33954;SDS011;20233;50.804;7.126;2022-09-27T06:59:07;3.53;;;0.75;;
33954;SDS011;20233;50.804;7.126;2022-09-27T07:01:52;2.45;;;0.35;;
33954;SDS011;20233;50.804;7.126;2022-09-27T07:04:18;1.92;;;0.50;;
33954;SDS011;20233;50.804;7.126;2022-09-27T07:06:44;1.85;;;0.30;;
33954;SDS011;20233;50.804;7.126;2022-09-27T07:09:09;2.78;;;0.40;;
33954;SDS011;20233;50.804;7.126;2022-09-27T07:11:35;3.88;;;0.30;;
33954;SDS011;20233;50.804;7.126;2022-09-27T07:14:03;3.97;;;0.50;;
33954;SDS011;20233;50.804;7.126;2022-09-27T07:16:30;1.42;;;0.30;;
33954;SDS011;20233;50.804;7.126;2022-09-27T07:18:58;2.88;;;0.30;;
33954;SDS011;20233;50.804;7.126;2022-09-27T07:21:24;1.92;;;0.43;;
33954;SDS011;20233;50.804;7.126;2022-09-27T07:23:50;2.45;;;0.22;;
33954;SDS011;20233;50.804;7.126;2022-09-27T07:26:15;3.00;;;0.65;;
33954;SDS011;20233;50.804;7.126;2022-09-27T07:28:41;1.92;;;0.20;;
33954;SDS011;20233;50.804;7.126;2022-09-27T07:31:07;2.80;;;0.20;;
33954;SDS011;20233;50.804;7.126;2022-09-27T07:33:33;3.55;;;0.55;;
33954;SDS011;20233;50.804;7.126;2022-09-27T07:35:59;1.52;;;0.15;;
33954;SDS011;20233;50.804;7.126;2022-09-27T07:38:24;0.77;;;0.20;;
33954;SDS011;20233;50.804;7.126;2022-09-27T07:40:50;1.38;;;0.20;;
33954;SDS011;20233;50.804;7.126;2022-09-27T07:43:16;3.20;;;0.20;;
33954;SDS011;20233;50.804;7.126;2022-09-27T07:45:43;3.10;;;0.40;;
33954;SDS011;20233;50.804;7.126;2022-09-27T07:48:10;1.00;;;0.20;;
33954;SDS011;20233;50.804;7.126;2022-09-27T07:50:38;1.90;;;0.30;;
33954;SDS011;20233;50.804;7.126;2022-09-27T07:53:04;2.80;;;0.15;;
33954;SDS011;20233;50.804;7.126;2022-09-27T07:55:30;1.05;;;0.20;;
33954;SDS011;20233;50.804;7.126;2022-09-27T07:58:03;1.58;;;0.22;;
33954;SDS011;20233;50.804;7.126;2022-09-27T08:00:30;1.63;;;0.15;;
33954;SDS011;20233;50.804;7.126;2022-09-27T08:02:55;1.75;;;0.63;;
33954;SDS011;20233;50.804;7.126;2022-09-27T08:05:21;0.98;;;0.10;;
33954;SDS011;20233;50.804;7.126;2022-09-27T08:07:46;1.88;;;0.20;;
33954;SDS011;20233;50.804;7.126;2022-09-27T08:10:12;3.67;;;0.20;;
33954;SDS011;20233;50.804;7.126;2022-09-27T08:12:38;0.77;;;0.10;;
33954;SDS011;20233;50.804;7.126;2022-09-27T08:15:03;2.35;;;0.45;;
33954;SDS011;20233;50.804;7.126;2022-09-27T08:17:32;4.65;;;0.30;;
33954;SDS011;20233;50.804;7.126;2022-09-27T08:19:58;2.13;;;0.20;;
33954;SDS011;20233;50.804;7.126;2022-09-27T08:22:27;1.65;;;0.17;;
33954;SDS011;20233;50.804;7.126;2022-09-27T08:24:53;2.85;;;0.30;;
33954;SDS011;20233;50.804;7.126;2022-09-27T08:27:18;0.73;;;0.20;;
33954;SDS011;20233;50.804;7.126;2022-09-27T08:29:44;2.05;;;0.40;;
33954;SDS011;20233;50.804;7.126;2022-09-27T08:32:11;1.55;;;0.20;;
33954;SDS011;20233;50.804;7.126;2022-09-27T08:34:37;1.90;;;0.28;;
33954;SDS011;20233;50.804;7.126;2022-09-27T08:37:03;2.72;;;0.30;;
33954;SDS011;20233;50.804;7.126;2022-09-27T08:39:29;0.65;;;0.20;;
33954;SDS011;20233;50.804;7.126;2022-09-27T08:44:30;1.45;;;0.32;;
33954;SDS011;20233;50.804;7.126;2022-09-27T08:47:20;1.98;;;0.20;;
33954;SDS011;20233;50.804;7.126;2022-09-27T08:49:53;1.35;;;0.20;;
33954;SDS011;20233;50.804;7.126;2022-09-27T08:52:41;2.10;;;0.30;;
33954;SDS011;20233;50.804;7.126;2022-09-27T08:55:20;2.35;;;0.47;;
33954;SDS011;20233;50.804;7.126;2022-09-27T08:57:53;0.98;;;0.30;;
33954;SDS011;20233;50.804;7.126;2022-09-27T09:00:21;2.45;;;0.28;;
33954;SDS011;20233;50.804;7.126;2022-09-27T09:02:47;2.30;;;0.28;;
33954;SDS011;20233;50.804;7.126;2022-09-27T09:05:15;2.50;;;0.30;;
33954;SDS011;20233;50.804;7.126;2022-09-27T09:10:33;2.20;;;0.90;;
33954;SDS011;20233;50.804;7.126;2022-09-27T09:21:26;5.43;;;1.95;;
33954;SDS011;20233;50.804;7.126;2022-09-27T09:24:17;2.20;;;0.70;;
33954;SDS011;20233;50.804;7.126;2022-09-27T09:27:01;1.58;;;0.40;;
33954;SDS011;20233;50.804;7.126;2022-09-27T09:29:51;2.13;;;0.20;;
33954;SDS011;20233;50.804;7.126;2022-09-27T09:35:18;2.65;;;0.25;;
33954;SDS011;20233;50.804;7.126;2022-09-27T09:38:17;2.60;;;0.20;;
33954;SDS011;20233;50.804;7.126;2022-09-27T09:40:59;2.10;;;0.20;;
33954;SDS011;20233;50.804;7.126;2022-09-27T09:46:09;0.93;;;0.10;;
33954;SDS011;20233;50.804;7.126;2022-09-27T09:48:50;0.95;;;0.30;;
33954;SDS011;20233;50.804;7.126;2022-09-27T09:51:37;1.40;;;0.10;;
33954;SDS011;20233;50.804;7.126;2022-09-27T09:54:26;2.72;;;0.10;;
33954;SDS011;20233;50.804;7.126;2022-09-27T09:57:05;1.02;;;0.20;;
33954;SDS011;20233;50.804;7.126;2022-09-27T09:59:46;0.95;;;0.20;;
33954;SDS011;20233;50.804;7.126;2022-09-27T10:02:25;1.80;;;0.20;;
33954;SDS011;20233;50.804;7.126;2022-09-27T10:04:57;2.22;;;0.30;;
33954;SDS011;20233;50.804;7.126;2022-09-27T10:07:23;2.85;;;0.25;;
33954;SDS011;20233;50.804;7.126;2022-09-27T10:09:51;1.80;;;0.20;;
33954;SDS011;20233;50.804;7.126;2022-09-27T10:12:21;1.48;;;0.20;;
33954;SDS011;20233;50.804;7.126;2022-09-27T10:14:47;2.50;;;0.68;;
33954;SDS011;20233;50.804;7.126;2022-09-27T10:17:18;1.50;;;0.25;;
33954;SDS011;20233;50.804;7.126;2022-09-27T10:19:47;2.35;;;0.28;;
33954;SDS011;20233;50.804;7.126;2022-09-27T10:22:24;1.20;;;0.20;;
33954;SDS011;20233;50.804;7.126;2022-09-27T10:24:58;1.60;;;0.20;;
33954;SDS011;20233;50.804;7.126;2022-09-27T10:27:37;0.85;;;0.20;;
33954;SDS011;20233;50.804;7.126;2022-09-27T10:30:05;2.78;;;0.30;;
33954;SDS011;20233;50.804;7.126;2022-09-27T10:32:44;2.63;;;0.22;;
33954;SDS011;20233;50.804;7.126;2022-09-27T10:40:43;15.90;;;2.55;;
33954;SDS011;20233;50.804;7.126;2022-09-27T10:51:59;2.60;;;0.28;;
33954;SDS011;20233;50.804;7.126;2022-09-27T10:54:34;1.48;;;0.20;;
33954;SDS011;20233;50.804;7.126;2022-09-27T10:57:04;1.48;;;0.20;;
33954;SDS011;20233;50.804;7.126;2022-09-27T10:59:57;1.95;;;0.20;;
33954;SDS011;20233;50.804;7.126;2022-09-27T11:02:36;1.27;;;0.28;;
33954;SDS011;20233;50.804;7.126;2022-09-27T11:05:14;0.60;;;0.20;;
33954;SDS011;20233;50.804;7.126;2022-09-27T11:07:52;1.55;;;0.28;;
33954;SDS011;20233;50.804;7.126;2022-09-27T11:10:40;0.95;;;0.17;;
33954;SDS011;20233;50.804;7.126;2022-09-27T11:13:16;3.08;;;0.20;;
33954;SDS011;20233;50.804;7.126;2022-09-27T11:16:00;3.22;;;0.20;;
33954;SDS011;20233;50.804;7.126;2022-09-27T11:21:37;3.70;;;0.40;;
33954;SDS011;20233;50.804;7.126;2022-09-27T11:32:03;1.58;;;0.28;;
33954;SDS011;20233;50.804;7.126;2022-09-27T11:43:23;1.48;;;0.30;;
33954;SDS011;20233;50.804;7.126;2022-09-27T11:56:47;1.00;;;0.20;;
33954;SDS011;20233;50.804;7.126;2022-09-27T12:05:23;1.85;;;0.75;;
33954;SDS011;20233;50.804;7.126;2022-09-27T12:10:45;0.98;;;0.20;;
33954;SDS011;20233;50.804;7.126;2022-09-27T12:13:15;1.50;;;0.30;;
33954;SDS011;20233;50.804;7.126;2022-09-27T12:15:46;2.30;;;0.20;;
33954;SDS011;20233;50.804;7.126;2022-09-27T12:20:49;5.28;;;0.47;;
33954;SDS011;20233;50.804;7.126;2022-09-27T12:23:19;1.73;;;0.30;;
33954;SDS011;20233;50.804;7.126;2022-09-27T12:25:50;2.15;;;0.30;;
33954;SDS011;20233;50.804;7.126;2022-09-27T12:31:16;3.08;;;0.50;;
33954;SDS011;20233;50.804;7.126;2022-09-27T12:36:40;1.92;;;0.30;;
33954;SDS011;20233;50.804;7.126;2022-09-27T12:39:14;3.80;;;0.50;;
33954;SDS011;20233;50.804;7.126;2022-09-27T12:41:54;2.70;;;0.40;;
33954;SDS011;20233;50.804;7.126;2022-09-27T12:44:26;1.33;;;0.30;;
33954;SDS011;20233;50.804;7.126;2022-09-27T12:47:17;1.42;;;0.30;;
33954;SDS011;20233;50.804;7.126;2022-09-27T12:52:55;2.20;;;0.52;;
33954;SDS011;20233;50.804;7.126;2022-09-27T12:55:38;2.70;;;0.30;;
33954;SDS011;20233;50.804;7.126;2022-09-27T13:06:34;2.33;;;0.45;;
33954;SDS011;20233;50.804;7.126;2022-09-27T13:12:00;2.50;;;0.57;;
33954;SDS011;20233;50.804;7.126;2022-09-27T13:14:40;3.42;;;0.47;;
33954;SDS011;20233;50.804;7.126;2022-09-27T13:17:31;3.97;;;0.65;;
33954;SDS011;20233;50.804;7.126;2022-09-27T13:22:55;3.10;;;0.30;;
33954;SDS011;20233;50.804;7.126;2022-09-27T13:36:18;1.75;;;0.20;;
33954;SDS011;20233;50.804;7.126;2022-09-27T13:44:18;2.45;;;0.88;;
33954;SDS011;20233;50.804;7.126;2022-09-27T13:52:56;2.50;;;0.28;;
33954;SDS011;20233;50.804;7.126;2022-09-27T13:55:49;1.88;;;0.40;;
33954;SDS011;20233;50.804;7.126;2022-09-27T14:01:21;1.98;;;0.20;;
33954;SDS011;20233;50.804;7.126;2022-09-27T14:04:12;1.45;;;0.10;;
33954;SDS011;20233;50.804;7.126;2022-09-27T14:06:46;1.23;;;0.10;;
33954;SDS011;20233;50.804;7.126;2022-09-27T14:09:19;1.80;;;0.57;;
33954;SDS011;20233;50.804;7.126;2022-09-27T14:11:52;1.90;;;0.10;;
33954;SDS011;20233;50.804;7.126;2022-09-27T14:14:22;0.70;;;0.05;;
33954;SDS011;20233;50.804;7.126;2022-09-27T14:16:50;1.92;;;0.13;;
33954;SDS011;20233;50.804;7.126;2022-09-27T14:19:20;1.20;;;0.20;;
33954;SDS011;20233;50.804;7.126;2022-09-27T14:21:54;1.33;;;0.10;;
33954;SDS011;20233;50.804;7.126;2022-09-27T14:24:53;1.77;;;0.10;;
33954;SDS011;20233;50.804;7.126;2022-09-27T14:27:20;1.52;;;0.10;;
33954;SDS011;20233;50.804;7.126;2022-09-27T14:29:55;2.88;;;0.10;;
33954;SDS011;20233;50.804;7.126;2022-09-27T14:32:23;2.90;;;0.10;;
33954;SDS011;20233;50.804;7.126;2022-09-27T14:35:04;1.60;;;0.10;;
33954;SDS011;20233;50.804;7.126;2022-09-27T14:38:05;2.05;;;0.10;;
33954;SDS011;20233;50.804;7.126;2022-09-27T14:40:34;4.40;;;0.20;;
33954;SDS011;20233;50.804;7.126;2022-09-27T14:43:22;4.03;;;0.20;;
33954;SDS011;20233;50.804;7.126;2022-09-27T14:45:48;2.80;;;0.13;;
33954;SDS011;20233;50.804;7.126;2022-09-27T14:48:27;1.60;;;0.17;;
33954;SDS011;20233;50.804;7.126;2022-09-27T14:51:14;2.53;;;0.20;;
33954;SDS011;20233;50.804;7.126;2022-09-27T14:53:46;2.97;;;0.32;;
33954;SDS011;20233;50.804;7.126;2022-09-27T14:56:14;3.58;;;0.10;;
33954;SDS011;20233;50.804;7.126;2022-09-27T14:58:43;2.30;;;0.10;;
33954;SDS011;20233;50.804;7.126;2022-09-27T15:01:16;4.05;;;0.52;;
33954;SDS011;20233;50.804;7.126;2022-09-27T15:03:44;4.55;;;0.60;;
33954;SDS011;20233;50.804;7.126;2022-09-27T15:06:12;3.10;;;0.17;;
33954;SDS011;20233;50.804;7.126;2022-09-27T15:08:39;2.97;;;0.10;;
33954;SDS011;20233;50.804;7.126;2022-09-27T15:11:05;3.13;;;0.60;;
33954;SDS011;20233;50.804;7.126;2022-09-27T15:13:32;3.33;;;0.20;;
33954;SDS011;20233;50.804;7.126;2022-09-27T15:16:00;3.67;;;0.17;;
33954;SDS011;20233;50.804;7.126;2022-09-27T15:18:42;3.30;;;0.40;;
33954;SDS011;20233;50.804;7.126;2022-09-27T15:21:13;1.98;;;0.30;;
33954;SDS011;20233;50.804;7.126;2022-09-27T15:23:51;2.08;;;0.10;;
33954;SDS011;20233;50.804;7.126;2022-09-27T15:26:23;1.67;;;0.20;;
33954;SDS011;20233;50.804;7.126;2022-09-27T15:28:51;1.75;;;0.10;;
33954;SDS011;20233;50.804;7.126;2022-09-27T15:31:26;3.63;;;0.35;;
33954;SDS011;20233;50.804;7.126;2022-09-27T15:33:57;4.15;;;0.40;;
33954;SDS011;20233;50.804;7.126;2022-09-27T15:39:11;3.50;;;0.70;;
33954;SDS011;20233;50.804;7.126;2022-09-27T15:44:35;0.35;;;0.10;;
33954;SDS011;20233;50.804;7.126;2022-09-27T15:52:43;2.17;;;0.17;;
33954;SDS011;20233;50.804;7.126;2022-09-27T15:55:17;2.72;;;0.80;;
33954;SDS011;20233;50.804;7.126;2022-09-27T15:57:46;0.90;;;0.20;;
33954;SDS011;20233;50.804;7.126;2022-09-27T16:00:15;0.82;;;0.30;;
33954;SDS011;20233;50.804;7.126;2022-09-27T16:02:42;1.63;;;0.20;;
33954;SDS011;20233;50.804;7.126;2022-09-27T16:05:08;1.88;;;0.20;;
33954;SDS011;20233;50.804;7.126;2022-09-27T16:07:34;2.15;;;0.10;;
33954;SDS011;20233;50.804;7.126;2022-09-27T16:10:00;1.75;;;0.30;;
33954;SDS011;20233;50.804;7.126;2022-09-27T16:12:26;3.65;;;0.30;;
33954;SDS011;20233;50.804;7.126;2022-09-27T16:14:54;4.40;;;0.80;;
33954;SDS011;20233;50.804;7.126;2022-09-27T16:17:20;2.45;;;0.30;;
33954;SDS011;20233;50.804;7.126;2022-09-27T16:19:46;0.70;;;0.20;;
33954;SDS011;20233;50.804;7.126;2022-09-27T16:22:12;2.25;;;0.20;;
33954;SDS011;20233;50.804;7.126;2022-09-27T16:24:37;1.45;;;0.30;;
33954;SDS011;20233;50.804;7.126;2022-09-27T16:27:03;5.38;;;0.40;;
33954;SDS011;20233;50.804;7.126;2022-09-27T16:29:29;1.65;;;0.55;;
33954;SDS011;20233;50.804;7.126;2022-09-27T16:31:54;3.08;;;0.20;;
33954;SDS011;20233;50.804;7.126;2022-09-27T16:34:21;2.92;;;0.28;;
33954;SDS011;20233;50.804;7.126;2022-09-27T16:36:47;1.65;;;0.30;;
33954;SDS011;20233;50.804;7.126;2022-09-27T16:39:13;1.80;;;0.38;;
33954;SDS011;20233;50.804;7.126;2022-09-27T16:41:42;2.80;;;0.28;;
33954;SDS011;20233;50.804;7.126;2022-09-27T16:44:12;3.15;;;0.43;;
33954;SDS011;20233;50.804;7.126;2022-09-27T16:46:41;2.60;;;0.50;;
33954;SDS011;20233;50.804;7.126;2022-09-27T16:49:10;2.45;;;0.60;;
33954;SDS011;20233;50.804;7.126;2022-09-27T16:51:54;4.22;;;0.68;;
33954;SDS011;20233;50.804;7.126;2022-09-27T16:54:23;5.20;;;1.20;;
33954;SDS011;20233;50.804;7.126;2022-09-27T16:56:49;3.17;;;0.30;;
33954;SDS011;20233;50.804;7.126;2022-09-27T16:59:15;3.40;;;0.88;;
33954;SDS011;20233;50.804;7.126;2022-09-27T17:01:40;1.95;;;0.50;;
33954;SDS011;20233;50.804;7.126;2022-09-27T17:04:06;2.85;;;0.40;;
33954;SDS011;20233;50.804;7.126;2022-09-27T17:06:32;3.05;;;0.93;;
33954;SDS011;20233;50.804;7.126;2022-09-27T17:09:00;4.50;;;1.67;;
33954;SDS011;20233;50.804;7.126;2022-09-27T17:11:27;4.28;;;2.85;;
33954;SDS011;20233;50.804;7.126;2022-09-27T17:13:54;4.28;;;2.10;;
33954;SDS011;20233;50.804;7.126;2022-09-27T17:16:19;6.40;;;1.40;;
33954;SDS011;20233;50.804;7.126;2022-09-27T17:18:46;2.92;;;1.40;;
33954;SDS011;20233;50.804;7.126;2022-09-27T17:21:11;5.63;;;0.88;;
33954;SDS011;20233;50.804;7.126;2022-09-27T17:23:37;1.80;;;0.63;;
33954;SDS011;20233;50.804;7.126;2022-09-27T17:28:29;3.92;;;0.55;;
33954;SDS011;20233;50.804;7.126;2022-09-27T17:31:02;2.88;;;0.73;;
33954;SDS011;20233;50.804;7.126;2022-09-27T17:33:29;3.65;;;0.88;;
33954;SDS011;20233;50.804;7.126;2022-09-27T17:36:01;4.72;;;1.08;;
33954;SDS011;20233;50.804;7.126;2022-09-27T17:38:30;4.35;;;1.50;;
33954;SDS011;20233;50.804;7.126;2022-09-27T17:40:59;5.28;;;2.22;;
33954;SDS011;20233;50.804;7.126;2022-09-27T17:43:29;5.75;;;2.38;;
33954;SDS011;20233;50.804;7.126;2022-09-27T17:46:02;6.28;;;2.53;;
33954;SDS011;20233;50.804;7.126;2022-09-27T17:48:29;9.13;;;5.22;;
33954;SDS011;20233;50.804;7.126;2022-09-27T17:51:13;5.60;;;3.85;;
33954;SDS011;20233;50.804;7.126;2022-09-27T17:53:39;5.55;;;2.10;;
33954;SDS011;20233;50.804;7.126;2022-09-27T17:56:05;5.25;;;2.60;;
33954;SDS011;20233;50.804;7.126;2022-09-27T17:58:31;4.18;;;2.05;;